sensor_id;sensor_type;location;lat;lon;timestamp;temperature;humidity
9425;DHT22;17139;52.140;11.636;2023-05-29T00:00:11;14.50;39.50
9425;DHT22;17139;52.140;11.636;2023-05-29T00:02:39;14.60;40.40
9425;DHT22;17139;52.140;11.636;2023-05-29T00:05:10;14.60;39.50
9425;DHT22;17139;52.140;11.636;2023-05-29T00:07:39;14.50;39.50
9425;DHT22;17139;52.140;11.636;2023-05-29T00:10:07;14.40;39.60
9425;DHT22;17139;52.140;11.636;2023-05-29T00:12:35;14.30;39.60
9425;DHT22;17139;52.140;11.636;2023-05-29T00:15:03;14.20;39.70
9425;DHT22;17139;52.140;11.636;2023-05-29T00:17:30;14.10;39.80
9425;DHT22;17139;52.140;11.636;2023-05-29T00:19:58;14.00;39.80
9425;DHT22;17139;52.140;11.636;2023-05-29T00:22:27;13.90;39.70
9425;DHT22;17139;52.140;11.636;2023-05-29T00:24:55;14.10;40.50
9425;DHT22;17139;52.140;11.636;2023-05-29T00:27:22;14.10;39.90
9425;DHT22;17139;52.140;11.636;2023-05-29T00:29:49;14.00;39.80
9425;DHT22;17139;52.140;11.636;2023-05-29T00:32:16;13.90;39.70
9425;DHT22;17139;52.140;11.636;2023-05-29T00:34:43;13.80;39.60
9425;DHT22;17139;52.140;11.636;2023-05-29T00:37:11;13.80;39.70
9425;DHT22;17139;52.140;11.636;2023-05-29T00:39:38;13.70;39.70
9425;DHT22;17139;52.140;11.636;2023-05-29T00:42:07;13.70;39.80
9425;DHT22;17139;52.140;11.636;2023-05-29T00:44:34;14.60;41.40
9425;DHT22;17139;52.140;11.636;2023-05-29T00:47:01;14.30;39.80
9425;DHT22;17139;52.140;11.636;2023-05-29T00:49:28;14.00;39.80
9425;DHT22;17139;52.140;11.636;2023-05-29T00:51:55;13.80;39.80
9425;DHT22;17139;52.140;11.636;2023-05-29T00:54:26;13.70;40.00
9425;DHT22;17139;52.140;11.636;2023-05-29T00:56:54;13.60;39.90
9425;DHT22;17139;52.140;11.636;2023-05-29T00:59:23;13.50;39.90
9425;DHT22;17139;52.140;11.636;2023-05-29T01:01:51;13.50;40.10
9425;DHT22;17139;52.140;11.636;2023-05-29T01:04:20;13.60;40.70
9425;DHT22;17139;52.140;11.636;2023-05-29T01:06:49;13.50;40.10
9425;DHT22;17139;52.140;11.636;2023-05-29T01:09:17;13.50;40.00
9425;DHT22;17139;52.140;11.636;2023-05-29T01:11:49;13.30;40.00
9425;DHT22;17139;52.140;11.636;2023-05-29T01:14:36;13.40;40.30
9425;DHT22;17139;52.140;11.636;2023-05-29T01:17:11;13.30;40.10
9425;DHT22;17139;52.140;11.636;2023-05-29T01:20:01;13.20;40.10
9425;DHT22;17139;52.140;11.636;2023-05-29T01:22:45;14.10;41.60
9425;DHT22;17139;52.140;11.636;2023-05-29T01:25:19;13.80;40.30
9425;DHT22;17139;52.140;11.636;2023-05-29T01:27:50;14.20;41.60
9425;DHT22;17139;52.140;11.636;2023-05-29T01:30:20;13.80;40.30
9425;DHT22;17139;52.140;11.636;2023-05-29T01:32:50;13.50;40.30
9425;DHT22;17139;52.140;11.636;2023-05-29T01:35:18;13.20;40.40
9425;DHT22;17139;52.140;11.636;2023-05-29T01:37:45;13.10;40.50
9425;DHT22;17139;52.140;11.636;2023-05-29T01:40:12;13.00;40.50
9425;DHT22;17139;52.140;11.636;2023-05-29T01:42:40;12.90;40.40
9425;DHT22;17139;52.140;11.636;2023-05-29T01:45:10;13.20;41.80
9425;DHT22;17139;52.140;11.636;2023-05-29T01:47:37;13.80;42.00
9425;DHT22;17139;52.140;11.636;2023-05-29T01:50:05;13.40;40.50
9425;DHT22;17139;52.140;11.636;2023-05-29T01:52:32;13.10;40.60
9425;DHT22;17139;52.140;11.636;2023-05-29T01:55:00;12.90;40.60
9425;DHT22;17139;52.140;11.636;2023-05-29T01:57:28;12.60;40.60
9425;DHT22;17139;52.140;11.636;2023-05-29T01:59:55;12.50;40.80
9425;DHT22;17139;52.140;11.636;2023-05-29T02:02:24;12.40;40.90
9425;DHT22;17139;52.140;11.636;2023-05-29T02:04:51;12.90;42.30
9425;DHT22;17139;52.140;11.636;2023-05-29T02:07:19;13.40;42.20
9425;DHT22;17139;52.140;11.636;2023-05-29T02:09:46;12.90;40.60
9425;DHT22;17139;52.140;11.636;2023-05-29T02:12:13;12.50;40.70
9425;DHT22;17139;52.140;11.636;2023-05-29T02:14:40;12.30;41.00
9425;DHT22;17139;52.140;11.636;2023-05-29T02:17:07;12.10;41.00
9425;DHT22;17139;52.140;11.636;2023-05-29T02:19:36;12.00;41.10
9425;DHT22;17139;52.140;11.636;2023-05-29T02:22:03;11.90;41.20
9425;DHT22;17139;52.140;11.636;2023-05-29T02:24:31;11.70;40.90
9425;DHT22;17139;52.140;11.636;2023-05-29T02:26:58;11.70;41.00
9425;DHT22;17139;52.140;11.636;2023-05-29T02:29:25;11.70;41.50
9425;DHT22;17139;52.140;11.636;2023-05-29T02:31:52;11.70;41.00
9425;DHT22;17139;52.140;11.636;2023-05-29T02:34:19;11.60;41.00
9425;DHT22;17139;52.140;11.636;2023-05-29T02:36:49;11.50;40.90
9425;DHT22;17139;52.140;11.636;2023-05-29T02:39:17;11.40;41.00
9425;DHT22;17139;52.140;11.636;2023-05-29T02:41:44;11.40;40.90
9425;DHT22;17139;52.140;11.636;2023-05-29T02:44:11;11.30;41.50
9425;DHT22;17139;52.140;11.636;2023-05-29T02:46:38;11.30;41.00
9425;DHT22;17139;52.140;11.636;2023-05-29T02:49:05;11.80;42.80
9425;DHT22;17139;52.140;11.636;2023-05-29T02:51:32;12.60;43.00
9425;DHT22;17139;52.140;11.636;2023-05-29T02:54:01;12.10;41.20
9425;DHT22;17139;52.140;11.636;2023-05-29T02:56:28;11.80;41.20
9425;DHT22;17139;52.140;11.636;2023-05-29T02:58:55;11.50;41.30
9425;DHT22;17139;52.140;11.636;2023-05-29T03:01:22;11.30;41.40
9425;DHT22;17139;52.140;11.636;2023-05-29T03:03:49;11.30;41.50
9425;DHT22;17139;52.140;11.636;2023-05-29T03:06:16;11.20;41.50
9425;DHT22;17139;52.140;11.636;2023-05-29T03:08:44;11.80;43.40
9425;DHT22;17139;52.140;11.636;2023-05-29T03:11:13;12.40;43.40
9425;DHT22;17139;52.140;11.636;2023-05-29T03:13:41;12.10;41.70
9425;DHT22;17139;52.140;11.636;2023-05-29T03:16:08;11.80;41.60
9425;DHT22;17139;52.140;11.636;2023-05-29T03:18:35;11.60;41.70
9425;DHT22;17139;52.140;11.636;2023-05-29T03:21:02;11.40;41.60
9425;DHT22;17139;52.140;11.636;2023-05-29T03:23:29;11.30;41.60
9425;DHT22;17139;52.140;11.636;2023-05-29T03:25:57;11.30;41.60
9425;DHT22;17139;52.140;11.636;2023-05-29T03:28:25;11.20;41.50
9425;DHT22;17139;52.140;11.636;2023-05-29T03:30:52;11.10;41.50
9425;DHT22;17139;52.140;11.636;2023-05-29T03:33:19;11.80;43.70
9425;DHT22;17139;52.140;11.636;2023-05-29T03:35:46;11.70;41.60
9425;DHT22;17139;52.140;11.636;2023-05-29T03:38:13;11.40;41.40
9425;DHT22;17139;52.140;11.636;2023-05-29T03:40:40;11.30;41.50
9425;DHT22;17139;52.140;11.636;2023-05-29T03:43:08;11.20;41.50
9425;DHT22;17139;52.140;11.636;2023-05-29T03:45:36;11.10;41.50
9425;DHT22;17139;52.140;11.636;2023-05-29T03:48:03;11.00;41.60
9425;DHT22;17139;52.140;11.636;2023-05-29T03:50:30;11.10;42.30
9425;DHT22;17139;52.140;11.636;2023-05-29T03:52:57;11.40;42.90
9425;DHT22;17139;52.140;11.636;2023-05-29T03:55:26;11.40;41.60
9425;DHT22;17139;52.140;11.636;2023-05-29T03:57:53;11.20;41.50
9425;DHT22;17139;52.140;11.636;2023-05-29T04:00:21;11.10;41.50
9425;DHT22;17139;52.140;11.636;2023-05-29T04:02:49;11.10;41.60
9425;DHT22;17139;52.140;11.636;2023-05-29T04:05:17;11.00;41.60
9425;DHT22;17139;52.140;11.636;2023-05-29T04:07:44;11.00;41.60
9425;DHT22;17139;52.140;11.636;2023-05-29T04:10:11;11.10;42.30
9425;DHT22;17139;52.140;11.636;2023-05-29T04:12:38;11.30;42.70
9425;DHT22;17139;52.140;11.636;2023-05-29T04:15:06;11.20;41.70
9425;DHT22;17139;52.140;11.636;2023-05-29T04:17:34;11.10;41.50
9425;DHT22;17139;52.140;11.636;2023-05-29T04:20:03;11.20;41.70
9425;DHT22;17139;52.140;11.636;2023-05-29T04:22:34;11.20;41.80
9425;DHT22;17139;52.140;11.636;2023-05-29T04:25:01;11.20;41.50
9425;DHT22;17139;52.140;11.636;2023-05-29T04:27:29;11.20;41.40
9425;DHT22;17139;52.140;11.636;2023-05-29T04:29:57;11.90;43.60
9425;DHT22;17139;52.140;11.636;2023-05-29T04:32:25;11.90;41.80
9425;DHT22;17139;52.140;11.636;2023-05-29T04:34:52;12.10;43.20
9425;DHT22;17139;52.140;11.636;2023-05-29T04:37:21;12.00;41.80
9425;DHT22;17139;52.140;11.636;2023-05-29T04:39:55;11.90;41.90
9425;DHT22;17139;52.140;11.636;2023-05-29T04:42:23;11.80;41.80
9425;DHT22;17139;52.140;11.636;2023-05-29T04:44:50;12.00;41.90
9425;DHT22;17139;52.140;11.636;2023-05-29T04:47:18;12.20;42.30
9425;DHT22;17139;52.140;11.636;2023-05-29T04:49:45;12.50;42.30
9425;DHT22;17139;52.140;11.636;2023-05-29T04:52:14;12.70;42.10
9425;DHT22;17139;52.140;11.636;2023-05-29T04:54:43;13.00;42.40
9425;DHT22;17139;52.140;11.636;2023-05-29T04:57:10;13.20;42.10
9425;DHT22;17139;52.140;11.636;2023-05-29T04:59:37;13.40;42.20
9425;DHT22;17139;52.140;11.636;2023-05-29T05:02:04;13.60;42.00
9425;DHT22;17139;52.140;11.636;2023-05-29T05:04:32;13.70;42.10
9425;DHT22;17139;52.140;11.636;2023-05-29T05:07:00;13.90;42.40
9425;DHT22;17139;52.140;11.636;2023-05-29T05:09:27;14.10;42.50
9425;DHT22;17139;52.140;11.636;2023-05-29T05:11:56;14.40;42.50
9425;DHT22;17139;52.140;11.636;2023-05-29T05:14:23;15.00;42.90
9425;DHT22;17139;52.140;11.636;2023-05-29T05:16:50;15.10;42.20
9425;DHT22;17139;52.140;11.636;2023-05-29T05:19:17;15.20;42.10
9425;DHT22;17139;52.140;11.636;2023-05-29T05:21:44;15.30;42.40
9425;DHT22;17139;52.140;11.636;2023-05-29T05:24:11;15.30;42.10
9425;DHT22;17139;52.140;11.636;2023-05-29T05:26:38;15.30;41.90
9425;DHT22;17139;52.140;11.636;2023-05-29T05:29:06;15.30;41.90
9425;DHT22;17139;52.140;11.636;2023-05-29T05:31:33;16.20;42.10
9425;DHT22;17139;52.140;11.636;2023-05-29T05:34:00;15.90;41.40
9425;DHT22;17139;52.140;11.636;2023-05-29T05:36:27;15.70;41.60
9425;DHT22;17139;52.140;11.636;2023-05-29T05:38:54;15.50;41.60
9425;DHT22;17139;52.140;11.636;2023-05-29T05:41:21;15.50;41.60
9425;DHT22;17139;52.140;11.636;2023-05-29T05:43:48;15.50;41.70
9425;DHT22;17139;52.140;11.636;2023-05-29T05:46:17;15.60;41.70
9425;DHT22;17139;52.140;11.636;2023-05-29T05:48:44;15.70;41.80
9425;DHT22;17139;52.140;11.636;2023-05-29T05:51:11;16.00;41.80
9425;DHT22;17139;52.140;11.636;2023-05-29T05:53:39;16.20;41.80
9425;DHT22;17139;52.140;11.636;2023-05-29T05:56:06;16.80;42.10
9425;DHT22;17139;52.140;11.636;2023-05-29T05:58:33;17.80;41.30
9425;DHT22;17139;52.140;11.636;2023-05-29T06:01:00;17.70;41.20
9425;DHT22;17139;52.140;11.636;2023-05-29T06:03:28;17.40;41.40
9425;DHT22;17139;52.140;11.636;2023-05-29T06:05:58;17.50;42.00
9425;DHT22;17139;52.140;11.636;2023-05-29T06:08:25;17.60;42.30
9425;DHT22;17139;52.140;11.636;2023-05-29T06:10:52;17.70;42.30
9425;DHT22;17139;52.140;11.636;2023-05-29T06:13:19;17.80;42.40
9425;DHT22;17139;52.140;11.636;2023-05-29T06:15:46;18.10;42.20
9425;DHT22;17139;52.140;11.636;2023-05-29T06:18:13;18.70;41.60
9425;DHT22;17139;52.140;11.636;2023-05-29T06:20:42;18.70;41.50
9425;DHT22;17139;52.140;11.636;2023-05-29T06:23:09;18.60;41.60
9425;DHT22;17139;52.140;11.636;2023-05-29T06:25:36;18.50;41.70
9425;DHT22;17139;52.140;11.636;2023-05-29T06:28:03;18.50;41.80
9425;DHT22;17139;52.140;11.636;2023-05-29T06:30:31;18.50;41.70
9425;DHT22;17139;52.140;11.636;2023-05-29T06:32:58;18.60;41.50
9425;DHT22;17139;52.140;11.636;2023-05-29T06:35:25;19.60;40.00
9425;DHT22;17139;52.140;11.636;2023-05-29T06:37:54;19.20;40.00
9425;DHT22;17139;52.140;11.636;2023-05-29T06:40:21;19.80;39.30
9425;DHT22;17139;52.140;11.636;2023-05-29T06:42:48;19.30;39.50
9425;DHT22;17139;52.140;11.636;2023-05-29T06:45:15;18.90;40.00
9425;DHT22;17139;52.140;11.636;2023-05-29T06:47:43;18.70;40.20
9425;DHT22;17139;52.140;11.636;2023-05-29T06:50:10;18.40;40.20
9425;DHT22;17139;52.140;11.636;2023-05-29T06:52:37;18.20;40.30
9425;DHT22;17139;52.140;11.636;2023-05-29T06:55:07;17.80;40.30
9425;DHT22;17139;52.140;11.636;2023-05-29T06:57:34;17.90;40.70
9425;DHT22;17139;52.140;11.636;2023-05-29T07:00:01;18.20;40.30
9425;DHT22;17139;52.140;11.636;2023-05-29T07:02:29;17.70;39.90
9425;DHT22;17139;52.140;11.636;2023-05-29T07:04:56;17.40;40.50
9425;DHT22;17139;52.140;11.636;2023-05-29T07:07:23;17.30;40.70
9425;DHT22;17139;52.140;11.636;2023-05-29T07:09:50;17.10;40.50
9425;DHT22;17139;52.140;11.636;2023-05-29T07:12:19;16.80;40.70
9425;DHT22;17139;52.140;11.636;2023-05-29T07:14:46;16.70;40.90
9425;DHT22;17139;52.140;11.636;2023-05-29T07:17:13;16.60;41.10
9425;DHT22;17139;52.140;11.636;2023-05-29T07:19:41;16.50;41.00
9425;DHT22;17139;52.140;11.636;2023-05-29T07:22:08;16.50;41.10
9425;DHT22;17139;52.140;11.636;2023-05-29T07:24:35;16.40;41.10
9425;DHT22;17139;52.140;11.636;2023-05-29T07:27:02;16.40;41.10
9425;DHT22;17139;52.140;11.636;2023-05-29T07:29:31;16.40;41.10
9425;DHT22;17139;52.140;11.636;2023-05-29T07:31:58;16.50;41.30
9425;DHT22;17139;52.140;11.636;2023-05-29T07:34:25;16.90;41.60
9425;DHT22;17139;52.140;11.636;2023-05-29T07:37:00;16.90;41.00
9425;DHT22;17139;52.140;11.636;2023-05-29T07:39:28;16.80;41.00
9425;DHT22;17139;52.140;11.636;2023-05-29T07:41:55;16.80;41.00
9425;DHT22;17139;52.140;11.636;2023-05-29T07:44:22;16.70;40.90
9425;DHT22;17139;52.140;11.636;2023-05-29T07:46:51;16.70;41.00
9425;DHT22;17139;52.140;11.636;2023-05-29T07:49:19;16.80;41.10
9425;DHT22;17139;52.140;11.636;2023-05-29T07:51:46;16.80;41.10
9425;DHT22;17139;52.140;11.636;2023-05-29T07:54:13;16.90;41.00
9425;DHT22;17139;52.140;11.636;2023-05-29T07:56:43;17.30;41.00
9425;DHT22;17139;52.140;11.636;2023-05-29T07:59:11;17.80;40.60
9425;DHT22;17139;52.140;11.636;2023-05-29T08:01:38;17.50;40.30
9425;DHT22;17139;52.140;11.636;2023-05-29T08:04:07;17.30;40.60
9425;DHT22;17139;52.140;11.636;2023-05-29T08:06:34;17.30;40.80
9425;DHT22;17139;52.140;11.636;2023-05-29T08:09:02;17.80;40.80
9425;DHT22;17139;52.140;11.636;2023-05-29T08:11:30;17.70;40.40
9425;DHT22;17139;52.140;11.636;2023-05-29T08:13:58;18.20;40.30
9425;DHT22;17139;52.140;11.636;2023-05-29T08:16:25;18.00;40.10
9425;DHT22;17139;52.140;11.636;2023-05-29T08:18:52;18.00;40.10
9425;DHT22;17139;52.140;11.636;2023-05-29T08:21:21;18.00;40.10
9425;DHT22;17139;52.140;11.636;2023-05-29T08:23:48;18.20;40.30
9425;DHT22;17139;52.140;11.636;2023-05-29T08:26:15;18.30;40.30
9425;DHT22;17139;52.140;11.636;2023-05-29T08:28:42;18.50;40.40
9425;DHT22;17139;52.140;11.636;2023-05-29T08:31:09;18.60;40.30
9425;DHT22;17139;52.140;11.636;2023-05-29T08:33:37;19.30;39.60
9425;DHT22;17139;52.140;11.636;2023-05-29T08:36:04;19.60;39.50
9425;DHT22;17139;52.140;11.636;2023-05-29T08:38:33;20.00;38.90
9425;DHT22;17139;52.140;11.636;2023-05-29T08:41:00;19.50;39.30
9425;DHT22;17139;52.140;11.636;2023-05-29T08:43:30;19.20;39.70
9425;DHT22;17139;52.140;11.636;2023-05-29T08:46:00;19.10;40.10
9425;DHT22;17139;52.140;11.636;2023-05-29T08:48:28;18.80;40.20
9425;DHT22;17139;52.140;11.636;2023-05-29T08:50:57;18.60;40.50
9425;DHT22;17139;52.140;11.636;2023-05-29T08:53:24;18.40;40.40
9425;DHT22;17139;52.140;11.636;2023-05-29T08:55:53;18.50;40.70
9425;DHT22;17139;52.140;11.636;2023-05-29T08:58:22;18.40;40.50
9425;DHT22;17139;52.140;11.636;2023-05-29T09:00:50;18.30;40.70
9425;DHT22;17139;52.140;11.636;2023-05-29T09:03:17;18.40;40.90
9425;DHT22;17139;52.140;11.636;2023-05-29T09:05:45;18.30;40.80
9425;DHT22;17139;52.140;11.636;2023-05-29T09:08:13;18.30;40.90
9425;DHT22;17139;52.140;11.636;2023-05-29T09:10:41;18.10;40.90
9425;DHT22;17139;52.140;11.636;2023-05-29T09:13:10;18.20;41.00
9425;DHT22;17139;52.140;11.636;2023-05-29T09:15:40;18.30;41.00
9425;DHT22;17139;52.140;11.636;2023-05-29T09:18:09;18.50;41.00
9425;DHT22;17139;52.140;11.636;2023-05-29T09:20:36;18.50;40.90
9425;DHT22;17139;52.140;11.636;2023-05-29T09:23:05;18.50;40.70
9425;DHT22;17139;52.140;11.636;2023-05-29T09:25:34;18.60;40.80
9425;DHT22;17139;52.140;11.636;2023-05-29T09:28:02;18.60;40.90
9425;DHT22;17139;52.140;11.636;2023-05-29T09:30:35;18.70;40.70
9425;DHT22;17139;52.140;11.636;2023-05-29T09:33:03;18.80;40.80
9425;DHT22;17139;52.140;11.636;2023-05-29T09:35:34;19.00;40.60
9425;DHT22;17139;52.140;11.636;2023-05-29T09:38:01;19.70;40.00
9425;DHT22;17139;52.140;11.636;2023-05-29T09:40:31;19.40;40.00
9425;DHT22;17139;52.140;11.636;2023-05-29T09:43:08;19.20;40.40
9425;DHT22;17139;52.140;11.636;2023-05-29T09:45:38;19.20;40.60
9425;DHT22;17139;52.140;11.636;2023-05-29T09:48:07;19.20;40.60
9425;DHT22;17139;52.140;11.636;2023-05-29T09:50:35;19.10;40.60
9425;DHT22;17139;52.140;11.636;2023-05-29T09:53:02;19.20;40.80
9425;DHT22;17139;52.140;11.636;2023-05-29T09:55:31;20.00;40.00
9425;DHT22;17139;52.140;11.636;2023-05-29T09:57:59;19.90;40.00
9425;DHT22;17139;52.140;11.636;2023-05-29T10:00:28;19.80;40.10
9425;DHT22;17139;52.140;11.636;2023-05-29T10:02:58;19.70;40.20
9425;DHT22;17139;52.140;11.636;2023-05-29T10:05:25;19.70;40.20
9425;DHT22;17139;52.140;11.636;2023-05-29T10:07:54;19.60;40.30
9425;DHT22;17139;52.140;11.636;2023-05-29T10:10:21;19.50;40.40
9425;DHT22;17139;52.140;11.636;2023-05-29T10:12:53;19.50;40.50
9425;DHT22;17139;52.140;11.636;2023-05-29T10:15:23;19.60;40.40
9425;DHT22;17139;52.140;11.636;2023-05-29T10:18:02;19.60;40.30
9425;DHT22;17139;52.140;11.636;2023-05-29T10:20:30;19.60;40.30
9425;DHT22;17139;52.140;11.636;2023-05-29T10:23:00;19.50;40.10
9425;DHT22;17139;52.140;11.636;2023-05-29T10:25:27;19.50;40.20
9425;DHT22;17139;52.140;11.636;2023-05-29T10:27:58;19.40;40.20
9425;DHT22;17139;52.140;11.636;2023-05-29T10:30:30;19.40;40.20
9425;DHT22;17139;52.140;11.636;2023-05-29T10:33:10;19.40;40.20
9425;DHT22;17139;52.140;11.636;2023-05-29T10:35:46;19.50;40.30
9425;DHT22;17139;52.140;11.636;2023-05-29T10:38:14;20.30;39.30
9425;DHT22;17139;52.140;11.636;2023-05-29T10:40:44;20.60;38.70
9425;DHT22;17139;52.140;11.636;2023-05-29T10:43:32;20.30;39.20
9425;DHT22;17139;52.140;11.636;2023-05-29T10:45:59;21.00;38.50
9425;DHT22;17139;52.140;11.636;2023-05-29T10:48:42;20.50;39.00
9425;DHT22;17139;52.140;11.636;2023-05-29T10:51:24;20.40;39.40
9425;DHT22;17139;52.140;11.636;2023-05-29T10:53:52;20.30;39.70
9425;DHT22;17139;52.140;11.636;2023-05-29T10:56:23;20.20;39.70
9425;DHT22;17139;52.140;11.636;2023-05-29T10:58:55;20.30;39.80
9425;DHT22;17139;52.140;11.636;2023-05-29T11:01:23;20.30;39.80
9425;DHT22;17139;52.140;11.636;2023-05-29T11:03:54;20.50;39.50
9425;DHT22;17139;52.140;11.636;2023-05-29T11:06:41;20.40;39.40
9425;DHT22;17139;52.140;11.636;2023-05-29T11:09:26;20.30;39.70
9425;DHT22;17139;52.140;11.636;2023-05-29T11:12:11;20.40;39.80
9425;DHT22;17139;52.140;11.636;2023-05-29T11:14:46;20.90;39.10
9425;DHT22;17139;52.140;11.636;2023-05-29T11:17:29;20.70;39.30
9425;DHT22;17139;52.140;11.636;2023-05-29T11:19:59;21.40;38.30
9425;DHT22;17139;52.140;11.636;2023-05-29T11:22:56;21.70;38.00
9425;DHT22;17139;52.140;11.636;2023-05-29T11:25:27;21.70;38.00
9425;DHT22;17139;52.140;11.636;2023-05-29T11:27:54;21.30;38.50
9425;DHT22;17139;52.140;11.636;2023-05-29T11:30:22;21.10;38.80
9425;DHT22;17139;52.140;11.636;2023-05-29T11:32:49;20.90;39.00
9425;DHT22;17139;52.140;11.636;2023-05-29T11:35:21;20.90;39.40
9425;DHT22;17139;52.140;11.636;2023-05-29T11:37:48;20.90;39.20
9425;DHT22;17139;52.140;11.636;2023-05-29T11:40:16;21.10;38.40
9425;DHT22;17139;52.140;11.636;2023-05-29T11:42:44;20.90;38.40
9425;DHT22;17139;52.140;11.636;2023-05-29T11:45:12;20.60;38.80
9425;DHT22;17139;52.140;11.636;2023-05-29T11:47:56;20.50;39.00
9425;DHT22;17139;52.140;11.636;2023-05-29T11:50:26;20.30;39.10
9425;DHT22;17139;52.140;11.636;2023-05-29T11:52:53;20.20;39.30
9425;DHT22;17139;52.140;11.636;2023-05-29T11:55:21;20.20;39.60
9425;DHT22;17139;52.140;11.636;2023-05-29T11:57:49;20.20;39.40
9425;DHT22;17139;52.140;11.636;2023-05-29T12:00:18;21.10;37.70
9425;DHT22;17139;52.140;11.636;2023-05-29T12:02:45;20.90;38.30
9425;DHT22;17139;52.140;11.636;2023-05-29T12:05:15;21.70;37.00
9425;DHT22;17139;52.140;11.636;2023-05-29T12:07:49;21.60;37.90
9425;DHT22;17139;52.140;11.636;2023-05-29T12:10:17;21.50;38.20
9425;DHT22;17139;52.140;11.636;2023-05-29T12:12:47;21.50;38.30
9425;DHT22;17139;52.140;11.636;2023-05-29T12:15:15;21.50;38.30
9425;DHT22;17139;52.140;11.636;2023-05-29T12:17:43;21.50;38.30
9425;DHT22;17139;52.140;11.636;2023-05-29T12:20:12;21.70;37.50
9425;DHT22;17139;52.140;11.636;2023-05-29T12:22:40;21.80;38.10
9425;DHT22;17139;52.140;11.636;2023-05-29T12:25:10;22.70;36.00
9425;DHT22;17139;52.140;11.636;2023-05-29T12:27:39;22.40;36.80
9425;DHT22;17139;52.140;11.636;2023-05-29T12:30:10;22.10;37.40
9425;DHT22;17139;52.140;11.636;2023-05-29T12:32:37;21.90;37.80
9425;DHT22;17139;52.140;11.636;2023-05-29T12:35:16;21.70;38.10
9425;DHT22;17139;52.140;11.636;2023-05-29T12:37:48;21.70;38.10
9425;DHT22;17139;52.140;11.636;2023-05-29T12:40:19;21.70;38.40
9425;DHT22;17139;52.140;11.636;2023-05-29T12:42:47;21.60;38.30
9425;DHT22;17139;52.140;11.636;2023-05-29T12:45:14;22.30;36.50
9425;DHT22;17139;52.140;11.636;2023-05-29T12:47:51;22.00;37.40
9425;DHT22;17139;52.140;11.636;2023-05-29T12:50:25;21.70;37.70
9425;DHT22;17139;52.140;11.636;2023-05-29T12:52:54;21.50;37.90
9425;DHT22;17139;52.140;11.636;2023-05-29T12:55:23;21.30;38.10
9425;DHT22;17139;52.140;11.636;2023-05-29T12:57:50;21.10;38.20
9425;DHT22;17139;52.140;11.636;2023-05-29T13:00:18;21.30;37.50
9425;DHT22;17139;52.140;11.636;2023-05-29T13:02:46;21.20;38.10
9425;DHT22;17139;52.140;11.636;2023-05-29T13:05:13;21.10;38.10
9425;DHT22;17139;52.140;11.636;2023-05-29T13:07:41;21.00;38.40
9425;DHT22;17139;52.140;11.636;2023-05-29T13:10:09;21.00;38.40
9425;DHT22;17139;52.140;11.636;2023-05-29T13:12:37;20.90;38.20
9425;DHT22;17139;52.140;11.636;2023-05-29T13:15:06;20.90;38.10
9425;DHT22;17139;52.140;11.636;2023-05-29T13:17:33;20.80;38.30
9425;DHT22;17139;52.140;11.636;2023-05-29T13:20:00;20.90;37.30
9425;DHT22;17139;52.140;11.636;2023-05-29T13:22:27;20.80;37.70
9425;DHT22;17139;52.140;11.636;2023-05-29T13:24:57;20.80;38.20
9425;DHT22;17139;52.140;11.636;2023-05-29T13:27:25;21.60;35.50
9425;DHT22;17139;52.140;11.636;2023-05-29T13:29:54;21.30;36.70
9425;DHT22;17139;52.140;11.636;2023-05-29T13:32:21;21.10;37.00
9425;DHT22;17139;52.140;11.636;2023-05-29T13:34:48;20.90;37.30
9425;DHT22;17139;52.140;11.636;2023-05-29T13:37:15;20.90;37.30
9425;DHT22;17139;52.140;11.636;2023-05-29T13:39:42;20.90;37.50
9425;DHT22;17139;52.140;11.636;2023-05-29T13:42:09;20.90;37.30
9425;DHT22;17139;52.140;11.636;2023-05-29T13:44:37;21.70;34.80
9425;DHT22;17139;52.140;11.636;2023-05-29T13:47:07;21.40;36.10
9425;DHT22;17139;52.140;11.636;2023-05-29T13:49:34;21.30;36.70
9425;DHT22;17139;52.140;11.636;2023-05-29T13:52:02;21.30;37.00
9425;DHT22;17139;52.140;11.636;2023-05-29T13:54:30;21.30;37.00
9425;DHT22;17139;52.140;11.636;2023-05-29T13:57:00;21.40;37.20
9425;DHT22;17139;52.140;11.636;2023-05-29T13:59:28;21.30;37.10
9425;DHT22;17139;52.140;11.636;2023-05-29T14:01:55;21.90;35.10
9425;DHT22;17139;52.140;11.636;2023-05-29T14:04:24;21.70;36.00
9425;DHT22;17139;52.140;11.636;2023-05-29T14:06:52;21.90;35.00
9425;DHT22;17139;52.140;11.636;2023-05-29T14:09:19;21.80;36.10
9425;DHT22;17139;52.140;11.636;2023-05-29T14:11:52;21.70;36.60
9425;DHT22;17139;52.140;11.636;2023-05-29T14:14:19;21.70;36.80
9425;DHT22;17139;52.140;11.636;2023-05-29T14:16:46;21.70;36.90
9425;DHT22;17139;52.140;11.636;2023-05-29T14:19:13;21.70;36.80
9425;DHT22;17139;52.140;11.636;2023-05-29T14:21:41;21.60;36.80
9425;DHT22;17139;52.140;11.636;2023-05-29T14:24:08;21.80;35.70
9425;DHT22;17139;52.140;11.636;2023-05-29T14:26:36;22.00;34.80
9425;DHT22;17139;52.140;11.636;2023-05-29T14:29:03;21.80;36.00
9425;DHT22;17139;52.140;11.636;2023-05-29T14:31:30;21.70;36.30
9425;DHT22;17139;52.140;11.636;2023-05-29T14:33:57;21.70;36.60
9425;DHT22;17139;52.140;11.636;2023-05-29T14:36:24;21.60;36.60
9425;DHT22;17139;52.140;11.636;2023-05-29T14:38:52;21.50;36.50
9425;DHT22;17139;52.140;11.636;2023-05-29T14:41:19;21.50;36.80
9425;DHT22;17139;52.140;11.636;2023-05-29T14:43:46;21.50;37.00
9425;DHT22;17139;52.140;11.636;2023-05-29T14:46:13;21.50;36.90
9425;DHT22;17139;52.140;11.636;2023-05-29T14:48:40;22.10;34.40
9425;DHT22;17139;52.140;11.636;2023-05-29T14:51:07;21.80;35.70
9425;DHT22;17139;52.140;11.636;2023-05-29T14:53:35;21.50;36.00
9425;DHT22;17139;52.140;11.636;2023-05-29T14:56:05;21.40;36.50
9425;DHT22;17139;52.140;11.636;2023-05-29T14:58:32;21.40;36.80
9425;DHT22;17139;52.140;11.636;2023-05-29T15:00:59;21.40;36.70
9425;DHT22;17139;52.140;11.636;2023-05-29T15:03:26;21.30;36.50
9425;DHT22;17139;52.140;11.636;2023-05-29T15:05:54;21.20;36.70
9425;DHT22;17139;52.140;11.636;2023-05-29T15:08:23;21.30;37.00
9425;DHT22;17139;52.140;11.636;2023-05-29T15:10:49;21.30;36.90
9425;DHT22;17139;52.140;11.636;2023-05-29T15:13:18;21.30;36.80
9425;DHT22;17139;52.140;11.636;2023-05-29T15:15:45;21.20;36.70
9425;DHT22;17139;52.140;11.636;2023-05-29T15:18:12;21.10;36.50
9425;DHT22;17139;52.140;11.636;2023-05-29T15:20:39;21.10;36.80
9425;DHT22;17139;52.140;11.636;2023-05-29T15:23:06;21.20;35.90
9425;DHT22;17139;52.140;11.636;2023-05-29T15:25:33;21.70;34.60
9425;DHT22;17139;52.140;11.636;2023-05-29T15:28:00;22.00;33.40
9425;DHT22;17139;52.140;11.636;2023-05-29T15:30:30;22.00;33.80
9425;DHT22;17139;52.140;11.636;2023-05-29T15:32:57;22.20;33.20
9425;DHT22;17139;52.140;11.636;2023-05-29T15:35:24;22.40;32.40
9425;DHT22;17139;52.140;11.636;2023-05-29T15:37:51;21.90;33.90